Time;durP1;ratioP1;P1;durP2;ratioP2;P2;SDS_P1;SDS_P2;PMS_P1;PMS_P2;Temp;Humidity;BMP_temperature;BMP_pressure;BME280_temperature;BME280_humidity;BME280_pressure;Samples;Min_cycle;Max_cycle;Signal;HPM_P1;HPM_P2
2022/10/03 00:02:38;;;;;;;18.70;4.37;;;10.60;99.90;;;;;;5041335;28;20229;-73
2022/10/03 00:05:24;;;;;;;18.50;4.17;;;10.60;99.90;;;;;;5037536;28;20227;-74
2022/10/03 00:08:09;;;;;;;13.77;3.70;;;10.80;99.90;;;;;;5023102;28;20216;-73
2022/10/03 00:11:01;;;;;;;18.47;4.27;;;10.70;99.90;;;;;;5041961;28;20852;-74
2022/10/03 00:13:56;;;;;;;10.70;3.67;;;10.60;99.90;;;;;;5040474;28;20354;-75
2022/10/03 00:16:35;;;;;;;25.53;3.90;;;10.60;99.90;;;;;;5036754;28;20230;-75
2022/10/03 00:19:39;;;;;;;13.23;4.23;;;10.50;99.90;;;;;;5021482;28;20210;-74
2022/10/03 00:22:45;;;;;;;18.00;3.40;;;10.50;99.90;;;;;;5033558;28;20459;-74
2022/10/03 00:25:42;;;;;;;12.03;3.93;;;10.50;99.90;;;;;;5039790;28;20649;-73
2022/10/03 00:28:49;;;;;;;16.53;4.50;;;10.50;99.90;;;;;;5032388;28;20218;-74
2022/10/03 00:31:24;;;;;;;12.67;4.23;;;10.40;99.90;;;;;;5000054;28;20228;-73
2022/10/03 00:34:22;;;;;;;13.93;4.53;;;10.40;99.90;;;;;;5036967;28;20669;-73
2022/10/03 00:37:07;;;;;;;20.33;4.60;;;10.40;99.90;;;;;;5021514;28;20228;-74
2022/10/03 00:40:03;;;;;;;20.03;4.33;;;10.40;99.90;;;;;;5036731;28;20203;-74
2022/10/03 00:42:45;;;;;;;16.97;4.40;;;10.40;99.90;;;;;;4994607;28;20239;-73
2022/10/03 00:45:41;;;;;;;21.80;5.33;;;10.40;99.90;;;;;;5039267;28;20206;-74
2022/10/03 00:48:29;;;;;;;19.20;5.70;;;10.40;99.90;;;;;;5042480;28;20674;-73
2022/10/03 00:51:02;;;;;;;14.60;4.93;;;10.30;99.90;;;;;;5034764;28;20682;-72
2022/10/03 00:53:46;;;;;;;15.97;4.60;;;10.30;99.90;;;;;;5038239;28;20193;-74
2022/10/03 00:56:23;;;;;;;14.37;4.60;;;10.30;99.90;;;;;;5038677;28;20324;-74
2022/10/03 00:59:45;;;;;;;17.40;4.60;;;10.30;99.90;;;;;;5045837;28;20286;-72
2022/10/03 01:02:25;;;;;;;14.93;4.53;;;10.30;99.90;;;;;;5006708;28;20226;-73
2022/10/03 01:05:02;;;;;;;13.80;4.70;;;10.30;99.90;;;;;;5040043;28;20267;-74
2022/10/03 01:07:46;;;;;;;18.27;5.30;;;10.30;99.90;;;;;;5032263;28;20703;-73
2022/10/03 01:10:35;;;;;;;16.10;5.40;;;10.30;99.90;;;;;;5041271;28;20328;-74
2022/10/03 01:13:06;;;;;;;21.30;5.57;;;;;;;;;;5015594;28;20234;-75
2022/10/03 01:15:52;;;;;;;15.70;4.73;;;10.20;99.90;;;;;;5041719;28;20222;-73
2022/10/03 01:18:47;;;;;;;17.50;5.13;;;10.20;99.90;;;;;;5040842;28;20649;-74
2022/10/03 01:21:35;;;;;;;15.93;5.70;;;10.20;99.90;;;;;;5021434;28;20216;-74
2022/10/03 01:24:06;;;;;;;17.50;5.27;;;10.20;99.90;;;;;;5039394;28;20214;-74
2022/10/03 01:26:51;;;;;;;15.93;5.83;;;10.20;99.90;;;;;;5026692;28;20210;-74
2022/10/03 01:32:51;;;;;;;20.23;5.40;;;10.20;99.90;;;;;;5038867;28;20222;-73
2022/10/03 01:35:43;;;;;;;17.77;5.07;;;10.10;99.90;;;;;;5021668;28;20210;-73
2022/10/03 01:38:41;;;;;;;16.03;5.53;;;10.20;99.90;;;;;;5043827;28;20245;-72
2022/10/03 01:41:39;;;;;;;18.67;5.23;;;10.10;99.90;;;;;;5044341;28;20215;-73
2022/10/03 01:44:23;;;;;;;14.73;5.20;;;10.10;99.90;;;;;;5033821;28;20211;-74
2022/10/03 01:47:19;;;;;;;16.57;5.43;;;10.10;99.90;;;;;;5039009;28;20243;-74
2022/10/03 01:50:18;;;;;;;16.87;5.07;;;10.10;99.90;;;;;;5043346;28;20252;-73
2022/10/03 01:52:59;;;;;;;16.47;4.70;;;10.10;99.90;;;;;;5021476;28;20702;-73
2022/10/03 01:55:52;;;;;;;14.50;5.90;;;10.10;99.90;;;;;;5037692;28;20219;-74
2022/10/03 01:58:45;;;;;;;15.67;6.10;;;10.10;99.90;;;;;;5038301;28;20233;-74
2022/10/03 02:01:28;;;;;;;15.27;4.80;;;10.00;99.90;;;;;;5020478;28;20214;-74
2022/10/03 02:04:03;;;;;;;20.33;6.57;;;10.00;99.90;;;;;;5038093;28;21016;-74
2022/10/03 02:06:48;;;;;;;18.27;5.40;;;10.00;99.90;;;;;;5040204;28;20236;-72
2022/10/03 02:09:30;;;;;;;23.33;5.57;;;10.00;99.90;;;;;;5024896;28;20210;-72
2022/10/03 02:12:33;;;;;;;22.20;6.30;;;10.00;99.90;;;;;;5040489;28;20244;-74
2022/10/03 02:15:15;;;;;;;23.90;6.80;;;9.90;99.90;;;;;;5041150;28;20617;-74
2022/10/03 02:18:04;;;;;;;12.20;5.10;;;10.10;99.90;;;;;;5019926;28;20318;-72
2022/10/03 02:21:09;;;;;;;15.20;5.00;;;10.00;99.90;;;;;;5035825;28;20280;-73
2022/10/03 02:23:42;;;;;;;12.47;5.00;;;10.00;99.90;;;;;;5025909;28;20233;-74
2022/10/03 02:26:09;;;;;;;15.90;4.83;;;9.90;99.90;;;;;;5049715;28;20215;-71
2022/10/03 02:28:59;;;;;;;22.47;6.20;;;9.90;99.90;;;;;;5034376;28;20256;-73
2022/10/03 02:31:51;;;;;;;17.00;5.40;;;9.90;99.90;;;;;;5035341;28;20304;-74
2022/10/03 02:34:47;;;;;;;14.53;5.37;;;9.80;99.90;;;;;;5038035;28;20212;-74
2022/10/03 02:37:26;;;;;;;15.17;4.73;;;9.90;99.90;;;;;;5044742;28;20229;-74
2022/10/03 02:40:05;;;;;;;15.43;4.77;;;9.90;99.90;;;;;;5041386;28;20203;-74
2022/10/03 02:43:00;;;;;;;12.37;4.37;;;9.80;99.90;;;;;;5031894;28;20208;-74
2022/10/03 02:45:51;;;;;;;16.93;4.53;;;9.80;99.90;;;;;;5048198;28;20233;-73
2022/10/03 02:48:37;;;;;;;11.70;4.20;;;9.80;99.90;;;;;;5022291;28;20635;-76
2022/10/03 02:51:37;;;;;;;14.17;4.27;;;9.70;99.90;;;;;;5039178;28;20302;-74
2022/10/03 02:54:16;;;;;;;12.03;4.30;;;9.70;99.90;;;;;;5020658;28;20220;-73
2022/10/03 02:57:04;;;;;;;13.10;4.47;;;9.70;99.90;;;;;;5040653;28;20315;-75
2022/10/03 03:00:05;;;;;;;20.20;5.37;;;9.60;99.90;;;;;;5043133;28;20213;-73
2022/10/03 03:03:00;;;;;;;17.37;4.70;;;9.60;99.90;;;;;;5011742;28;20286;-73
2022/10/03 03:05:58;;;;;;;20.33;4.70;;;9.60;99.90;;;;;;5037409;28;20205;-75
2022/10/03 03:08:46;;;;;;;14.70;4.40;;;9.60;99.90;;;;;;5025019;28;20216;-74
2022/10/03 03:11:17;;;;;;;10.23;4.43;;;9.50;99.90;;;;;;5041389;28;20550;-73
2022/10/03 03:14:17;;;;;;;11.87;5.37;;;9.50;99.90;;;;;;5021152;28;20222;-74
2022/10/03 03:16:59;;;;;;;12.47;4.50;;;9.50;99.90;;;;;;5035491;28;20236;-75
2022/10/03 03:19:35;;;;;;;10.53;4.40;;;9.50;99.90;;;;;;5037955;28;20670;-74
2022/10/03 03:22:24;;;;;;;11.33;4.90;;;9.40;99.90;;;;;;5020726;28;20282;-74
2022/10/03 03:25:22;;;;;;;15.27;4.70;;;9.40;99.90;;;;;;5038212;28;20237;-74
2022/10/03 03:28:23;;;;;;;14.17;4.90;;;9.40;99.90;;;;;;5040604;28;20315;-74
2022/10/03 03:31:22;;;;;;;20.47;5.40;;;9.30;99.90;;;;;;5037016;28;20658;-73
2022/10/03 03:33:56;;;;;;;10.33;4.30;;;9.30;99.90;;;;;;5044761;28;20213;-74
2022/10/03 03:36:54;;;;;;;14.43;5.63;;;9.30;99.90;;;;;;5040019;28;20628;-73
2022/10/03 03:39:49;;;;;;;19.07;5.60;;;9.30;99.90;;;;;;5025335;28;20202;-73
2022/10/03 03:42:41;;;;;;;13.47;4.73;;;9.30;99.90;;;;;;5037326;28;20398;-74
2022/10/03 03:45:18;;;;;;;16.33;4.97;;;9.30;99.90;;;;;;5037030;28;20213;-75
2022/10/03 03:48:24;;;;;;;10.13;4.20;;;9.30;99.90;;;;;;5045314;28;20219;-73
2022/10/03 03:51:13;;;;;;;11.90;4.63;;;9.30;99.90;;;;;;5021094;28;20196;-74
2022/10/03 03:53:44;;;;;;;8.30;3.43;;;9.20;99.90;;;;;;5036177;28;20926;-74
2022/10/03 03:56:48;;;;;;;15.70;5.13;;;9.20;99.90;;;;;;5029140;28;20312;-74
2022/10/03 03:59:42;;;;;;;14.03;4.67;;;9.20;99.90;;;;;;5044377;28;20229;-74
2022/10/03 04:02:17;;;;;;;12.70;3.90;;;9.20;99.90;;;;;;5015946;28;20217;-74
2022/10/03 04:05:22;;;;;;;18.33;4.97;;;9.10;99.90;;;;;;5026502;28;20283;-74
2022/10/03 04:08:20;;;;;;;10.37;4.40;;;9.10;99.90;;;;;;5019047;28;20212;-75
2022/10/03 04:11:10;;;;;;;10.43;3.50;;;9.10;99.90;;;;;;5022365;28;20308;-75
2022/10/03 04:14:04;;;;;;;18.03;5.93;;;9.00;99.90;;;;;;5042185;28;20212;-73
2022/10/03 04:20:01;;;;;;;10.30;4.30;;;9.00;99.90;;;;;;5036970;28;20236;-74
2022/10/03 04:22:37;;;;;;;14.30;4.33;;;9.10;99.90;;;;;;5025902;28;20238;-74
2022/10/03 04:25:30;;;;;;;18.03;4.47;;;9.10;99.90;;;;;;5021304;28;20310;-74
2022/10/03 04:28:09;;;;;;;14.77;4.63;;;9.10;99.90;;;;;;5044661;28;20219;-74
2022/10/03 04:30:54;;;;;;;35.87;6.30;;;9.10;99.90;;;;;;5023434;28;20296;-74
2022/10/03 04:33:30;;;;;;;18.97;5.50;;;9.10;99.90;;;;;;5018757;28;20201;-74
2022/10/03 04:36:16;;;;;;;16.10;5.20;;;9.10;99.90;;;;;;5040830;28;20203;-75
2022/10/03 04:38:58;;;;;;;20.43;5.53;;;9.10;99.90;;;;;;5038315;28;20273;-74
2022/10/03 04:41:37;;;;;;;14.47;5.37;;;9.10;99.90;;;;;;5021570;28;20196;-73
2022/10/03 04:44:25;;;;;;;16.80;5.73;;;9.20;99.90;;;;;;5039775;28;20212;-74
2022/10/03 04:47:14;;;;;;;20.37;5.60;;;9.10;99.90;;;;;;5035459;28;20218;-75
2022/10/03 04:49:55;;;;;;;15.53;5.20;;;9.10;99.90;;;;;;5038744;28;20307;-74
2022/10/03 04:52:40;;;;;;;12.80;5.00;;;9.10;99.90;;;;;;5036549;28;20204;-74
2022/10/03 04:55:44;;;;;;;17.33;5.43;;;9.10;99.90;;;;;;5035689;28;20209;-74
2022/10/03 04:58:36;;;;;;;27.27;5.53;;;9.10;99.90;;;;;;5037416;28;20715;-74
2022/10/03 05:01:39;;;;;;;14.77;5.60;;;9.10;99.90;;;;;;5035417;28;20772;-74
2022/10/03 05:04:29;;;;;;;15.90;5.77;;;9.00;99.90;;;;;;5007778;28;20280;-75
2022/10/03 05:07:10;;;;;;;15.00;6.00;;;9.00;99.90;;;;;;5039998;28;20287;-75
2022/10/03 05:10:19;;;;;;;14.60;4.70;;;9.10;99.90;;;;;;5046184;28;20222;-74
2022/10/03 05:13:14;;;;;;;16.83;6.10;;;9.00;99.90;;;;;;5043617;28;20261;-74
2022/10/03 05:15:53;;;;;;;15.80;5.80;;;9.00;99.90;;;;;;5045515;28;20561;-73
2022/10/03 05:18:34;;;;;;;17.50;6.37;;;8.90;99.90;;;;;;5039789;28;20593;-73
2022/10/03 05:21:19;;;;;;;20.10;5.47;;;8.90;99.90;;;;;;5037026;28;20266;-74
2022/10/03 05:24:03;;;;;;;16.77;5.70;;;9.00;99.90;;;;;;5042103;28;20262;-74
2022/10/03 05:26:39;;;;;;;14.87;5.70;;;8.90;99.90;;;;;;5035845;28;20211;-74
2022/10/03 05:29:16;;;;;;;15.43;6.27;;;8.90;99.90;;;;;;5042782;28;20208;-74
2022/10/03 05:32:12;;;;;;;19.30;6.70;;;8.80;99.90;;;;;;5045290;28;20217;-73
2022/10/03 05:34:50;;;;;;;20.37;7.90;;;8.90;99.90;;;;;;5039918;28;20218;-74
2022/10/03 05:37:19;;;;;;;19.80;7.80;;;9.20;99.90;;;;;;5032080;28;20266;-74
2022/10/03 05:39:59;;;;;;;21.03;8.13;;;8.90;99.90;;;;;;5037395;28;20203;-74
2022/10/03 05:42:36;;;;;;;23.07;8.47;;;8.90;99.90;;;;;;5035268;28;20207;-73
2022/10/03 05:45:28;;;;;;;16.97;7.50;;;8.90;99.90;;;;;;5034359;28;20240;-74
2022/10/03 05:48:22;;;;;;;19.80;7.40;;;9.00;99.90;;;;;;5015690;28;20612;-75
2022/10/03 05:51:05;;;;;;;19.57;8.17;;;9.00;99.90;;;;;;5041332;28;20684;-74
2022/10/03 05:53:44;;;;;;;21.70;7.63;;;9.00;99.90;;;;;;5033730;28;20632;-75
2022/10/03 05:56:30;;;;;;;20.27;8.33;;;9.00;99.90;;;;;;5032623;28;20210;-74
2022/10/03 05:59:27;;;;;;;17.97;8.07;;;9.00;99.90;;;;;;5035651;28;20204;-74
2022/10/03 06:01:58;;;;;;;18.40;7.77;;;9.10;99.90;;;;;;5041250;28;20749;-74
2022/10/03 06:04:31;;;;;;;19.53;7.70;;;9.10;99.90;;;;;;5035820;28;20219;-74
2022/10/03 06:07:08;;;;;;;19.90;7.90;;;9.10;99.90;;;;;;5032972;28;20310;-75
2022/10/03 06:09:53;;;;;;;24.47;8.40;;;9.10;99.90;;;;;;5035149;28;20249;-74
2022/10/03 06:12:42;;;;;;;16.40;7.53;;;9.10;99.90;;;;;;5032109;28;20209;-73
2022/10/03 06:15:28;;;;;;;23.40;9.13;;;9.20;99.90;;;;;;5039424;28;20237;-73
2022/10/03 06:18:16;;;;;;;19.70;7.60;;;9.20;99.90;;;;;;5030686;28;20752;-74
2022/10/03 06:21:28;;;;;;;21.17;7.80;;;9.20;99.90;;;;;;5036392;28;20248;-74
2022/10/03 06:24:09;;;;;;;21.27;8.30;;;9.30;99.90;;;;;;5035868;28;20324;-75
2022/10/03 06:26:42;;;;;;;20.73;9.17;;;9.30;99.90;;;;;;5039328;28;20661;-73
2022/10/03 06:29:40;;;;;;;21.97;9.57;;;9.30;99.90;;;;;;5042976;28;20649;-74
2022/10/03 06:32:09;;;;;;;19.37;7.70;;;9.40;99.90;;;;;;5044194;28;20321;-74
2022/10/03 06:35:12;;;;;;;20.10;8.30;;;9.40;99.90;;;;;;5043458;28;20267;-72
2022/10/03 06:38:16;;;;;;;21.87;9.57;;;9.50;99.90;;;;;;5041108;28;20655;-75
2022/10/03 06:40:52;;;;;;;27.43;11.37;;;9.60;99.90;;;;;;5016437;28;20600;-72
2022/10/03 06:43:29;;;;;;;28.17;11.60;;;9.90;99.90;;;;;;5035771;28;20211;-72
2022/10/03 06:45:58;;;;;;;24.80;10.50;;;10.50;99.90;;;;;;5040761;28;20226;-74
2022/10/03 06:48:35;;;;;;;163.53;18.87;;;;;;;;;;5040293;28;20197;-73
2022/10/03 06:51:30;;;;;;;13.43;6.87;;;11.40;99.90;;;;;;5039419;28;20762;-73
2022/10/03 06:54:19;;;;;;;11.20;5.77;;;12.00;99.90;;;;;;5025174;28;20209;-72
2022/10/03 06:57:01;;;;;;;10.73;4.30;;;12.30;99.90;;;;;;5035519;28;20208;-72
2022/10/03 06:59:45;;;;;;;13.90;4.80;;;12.50;99.90;;;;;;5021885;28;20318;-73
2022/10/03 07:02:34;;;;;;;9.30;4.50;;;12.60;99.90;;;;;;5039617;28;20638;-73
2022/10/03 07:05:40;;;;;;;9.50;4.47;;;12.50;99.90;;;;;;5025090;28;20196;-73
2022/10/03 07:08:58;;;;;;;9.93;4.17;;;12.40;99.90;;;;;;5040509;28;20201;-73
2022/10/03 07:11:56;;;;;;;9.67;4.03;;;12.40;99.90;;;;;;5037740;28;20233;-73
2022/10/03 07:14:55;;;;;;;12.97;3.77;;;12.30;99.90;;;;;;5037818;28;20223;-73
2022/10/03 07:17:48;;;;;;;11.47;4.10;;;12.30;99.90;;;;;;5025093;28;20256;-71
2022/10/03 07:20:31;;;;;;;12.17;4.40;;;12.30;99.90;;;;;;5035723;28;20725;-73
2022/10/03 07:23:39;;;;;;;9.27;4.20;;;12.20;99.90;;;;;;5041337;28;20260;-73
2022/10/03 07:26:39;;;;;;;11.10;3.90;;;12.30;99.90;;;;;;5047655;28;20201;-73
2022/10/03 07:29:17;;;;;;;12.97;4.10;;;12.40;99.90;;;;;;5048302;28;20300;-73
2022/10/03 07:32:16;;;;;;;9.97;3.60;;;12.40;99.90;;;;;;5053632;28;20209;-75
2022/10/03 07:35:13;;;;;;;12.90;4.20;;;12.40;99.90;;;;;;5040993;28;20707;-73
2022/10/03 07:41:59;;;;;;;9.67;4.13;;;12.50;99.90;;;;;;5035074;28;20292;-73
2022/10/03 07:44:58;;;;;;;14.83;3.93;;;12.50;99.90;;;;;;4997100;28;20205;-73
2022/10/03 07:47:51;;;;;;;13.20;3.97;;;12.70;99.90;;;;;;5046370;28;20837;-74
2022/10/03 07:50:39;;;;;;;11.40;3.40;;;;;;;;;;5047211;28;20572;-73
2022/10/03 07:53:30;;;;;;;10.93;3.60;;;12.70;99.90;;;;;;5045165;28;20205;-74
2022/10/03 07:56:18;;;;;;;10.90;3.37;;;12.80;99.90;;;;;;5037149;28;20206;-73
2022/10/03 07:59:23;;;;;;;11.43;3.50;;;12.90;99.90;;;;;;5048649;28;20221;-74
2022/10/03 08:02:07;;;;;;;13.03;3.10;;;12.90;99.90;;;;;;5046653;28;20685;-74
2022/10/03 08:04:49;;;;;;;12.20;3.17;;;13.00;99.90;;;;;;5047129;28;20236;-74
2022/10/03 08:07:37;;;;;;;10.17;3.07;;;13.10;99.90;;;;;;5051757;28;20731;-74
2022/10/03 08:10:22;;;;;;;10.30;3.13;;;13.20;99.90;;;;;;5038323;28;20680;-75
2022/10/03 08:13:24;;;;;;;12.57;3.40;;;13.40;99.90;;;;;;5025062;28;20583;-74
2022/10/03 08:16:01;;;;;;;11.70;3.17;;;13.50;99.90;;;;;;5034591;28;20283;-74
2022/10/03 08:18:44;;;;;;;7.77;3.03;;;;;;;;;;5046311;28;20239;-75
2022/10/03 08:21:35;;;;;;;10.57;3.00;;;13.90;99.90;;;;;;5041281;28;20211;-75
2022/10/03 08:24:31;;;;;;;7.77;3.10;;;14.10;99.90;;;;;;5043375;28;20189;-75
2022/10/03 08:26:57;;;;;;;7.40;2.97;;;14.30;99.90;;;;;;5042409;28;20642;-74
2022/10/03 08:29:50;;;;;;;6.17;2.70;;;14.50;99.90;;;;;;5042843;28;20205;-74
2022/10/03 08:32:49;;;;;;;7.53;2.57;;;14.70;99.90;;;;;;5039637;28;20303;-74
2022/10/03 08:35:28;;;;;;;7.67;2.13;;;14.90;99.90;;;;;;5037814;28;20565;-74
2022/10/03 08:37:57;;;;;;;7.73;2.00;;;15.10;99.90;;;;;;5045689;28;20347;-74
2022/10/03 08:40:55;;;;;;;9.13;2.60;;;15.30;99.90;;;;;;5041136;28;20201;-74
2022/10/03 08:43:59;;;;;;;8.37;2.53;;;15.50;99.90;;;;;;5034653;28;20203;-76
2022/10/03 08:46:42;;;;;;;8.43;2.33;;;15.60;99.90;;;;;;5044907;28;20212;-74
2022/10/03 08:49:34;;;;;;;10.45;2.78;;;15.70;99.90;;;;;;5038696;28;20688;-74
2022/10/03 08:52:24;;;;;;;10.77;2.90;;;16.00;99.90;;;;;;5043296;28;20688;-77
2022/10/03 08:55:22;;;;;;;10.18;2.92;;;16.30;99.90;;;;;;5035072;28;20205;-75
2022/10/03 08:58:30;;;;;;;7.55;3.15;;;16.60;99.90;;;;;;5039689;28;20225;-75
2022/10/03 09:01:39;;;;;;;8.88;2.97;;;17.10;99.90;;;;;;5023093;28;20806;-76
2022/10/03 09:04:38;;;;;;;11.00;2.78;;;17.60;99.90;;;;;;5003902;28;20201;-75
2022/10/03 09:07:43;;;;;;;7.97;1.80;;;18.00;99.90;;;;;;5037363;28;20211;-75
2022/10/03 09:10:31;;;;;;;10.70;2.30;;;18.50;99.90;;;;;;4946987;28;20313;-75
2022/10/03 09:13:16;;;;;;;6.47;2.45;;;18.80;99.90;;;;;;4945219;28;20296;-75
2022/10/03 09:15:55;;;;;;;8.93;1.92;;;19.10;99.90;;;;;;5017788;28;20207;-75
2022/10/03 09:18:47;;;;;;;6.63;2.08;;;19.20;99.90;;;;;;5040990;28;20236;-75
2022/10/03 09:21:39;;;;;;;7.63;2.10;;;19.30;99.90;;;;;;5043184;28;20283;-75
2022/10/03 09:24:47;;;;;;;4.05;1.30;;;19.40;99.90;;;;;;5037091;28;20212;-75
2022/10/03 09:27:43;;;;;;;7.72;1.67;;;19.40;99.90;;;;;;5044093;28;20304;-74
2022/10/03 09:30:20;;;;;;;8.40;2.05;;;19.40;99.90;;;;;;5033504;28;20280;-73
2022/10/03 09:32:55;;;;;;;8.27;1.40;;;19.40;99.90;;;;;;5039208;28;20303;-75
2022/10/03 09:35:53;;;;;;;3.75;1.25;;;19.40;99.90;;;;;;5041972;28;20233;-74
2022/10/03 09:38:33;;;;;;;4.18;1.13;;;19.50;99.90;;;;;;5037439;28;20315;-73
2022/10/03 09:41:18;;;;;;;5.97;1.30;;;19.40;99.90;;;;;;5037593;28;20232;-72
2022/10/03 09:44:13;;;;;;;7.18;1.98;;;19.30;99.90;;;;;;5031862;28;20215;-74
2022/10/03 09:49:59;;;;;;;4.90;1.48;;;19.20;99.90;;;;;;5040836;28;20198;-75
2022/10/03 09:53:12;;;;;;;5.65;1.27;;;19.00;99.90;;;;;;5027530;28;20210;-75
2022/10/03 09:56:00;;;;;;;4.38;1.10;;;19.00;99.90;;;;;;5037864;28;20216;-74
2022/10/03 09:58:39;;;;;;;6.72;1.52;;;18.90;99.90;;;;;;5037885;28;20316;-75
2022/10/03 10:01:18;;;;;;;7.22;1.58;;;18.70;99.90;;;;;;5024399;28;20222;-74
2022/10/03 10:03:44;;;;;;;6.97;1.17;;;18.70;99.90;;;;;;5041470;28;20206;-74
2022/10/03 10:06:29;;;;;;;5.72;1.52;;;18.60;99.90;;;;;;5042140;28;20201;-73
2022/10/03 10:09:17;;;;;;;5.20;1.40;;;18.40;99.90;;;;;;5040539;28;20203;-74
2022/10/03 10:11:56;;;;;;;5.07;1.30;;;18.30;99.90;;;;;;5039089;28;20249;-74
2022/10/03 10:14:35;;;;;;;7.45;1.10;;;18.20;99.90;;;;;;5037029;28;20297;-75
2022/10/03 10:17:25;;;;;;;7.65;1.20;;;18.10;99.90;;;;;;5032922;28;20316;-75
2022/10/03 10:20:23;;;;;;;3.78;0.80;;;18.10;99.90;;;;;;5040357;28;20338;-73
2022/10/03 10:23:14;;;;;;;5.57;1.08;;;18.00;99.90;;;;;;5046551;28;20229;-73
2022/10/03 10:26:08;;;;;;;8.80;1.35;;;18.00;99.90;;;;;;5032926;28;20686;-75
2022/10/03 10:29:10;;;;;;;2.65;1.00;;;18.10;99.90;;;;;;5033065;28;20213;-74
2022/10/03 10:32:03;;;;;;;5.05;1.23;;;18.10;99.90;;;;;;5044569;28;20826;-75
2022/10/03 10:34:45;;;;;;;6.43;1.40;;;18.20;99.90;;;;;;5037687;28;20197;-74
2022/10/03 10:37:53;;;;;;;4.75;1.30;;;18.30;99.90;;;;;;5045061;28;20553;-73
2022/10/03 10:40:53;;;;;;;3.30;1.10;;;18.40;99.90;;;;;;5042008;28;20284;-75
2022/10/03 10:43:53;;;;;;;5.60;1.20;;;18.40;99.90;;;;;;5045619;28;20539;-74
2022/10/03 10:46:44;;;;;;;5.68;1.25;;;18.50;99.90;;;;;;5036726;28;20341;-73
2022/10/03 10:50:06;;;;;;;5.50;1.50;;;18.60;99.90;;;;;;5031516;28;20721;-73
2022/10/03 10:52:44;;;;;;;2.67;1.10;;;18.70;99.90;;;;;;4952679;28;20298;-73
2022/10/03 10:55:51;;;;;;;4.78;1.00;;;18.70;99.90;;;;;;5032138;28;20205;-75
2022/10/03 10:58:38;;;;;;;6.93;1.48;;;18.80;99.90;;;;;;5042270;28;20250;-75
2022/10/03 11:01:55;;;;;;;4.50;1.10;;;18.90;99.90;;;;;;5049084;28;20761;-74
2022/10/03 11:04:40;;;;;;;4.55;1.17;;;19.10;99.90;;;;;;5048210;28;21020;-74
2022/10/03 11:07:34;;;;;;;6.00;1.45;;;19.20;99.90;;;;;;5037905;28;20224;-74
2022/10/03 11:10:27;;;;;;;4.03;1.15;;;19.30;99.90;;;;;;5042053;28;20292;-73
2022/10/03 11:13:23;;;;;;;3.97;1.23;;;19.30;99.90;;;;;;5041771;28;20301;-74
2022/10/03 11:16:34;;;;;;;7.70;1.10;;;19.30;99.90;;;;;;5046986;28;20197;-73
2022/10/03 11:19:33;;;;;;;4.88;1.20;;;19.30;99.90;;;;;;5040457;28;20228;-74
2022/10/03 11:22:37;;;;;;;4.38;1.27;;;19.30;99.90;;;;;;5038732;28;20267;-74
2022/10/03 11:26:00;;;;;;;6.05;1.50;;;19.20;99.90;;;;;;5022430;28;20288;-74
2022/10/03 11:29:05;;;;;;;5.53;1.27;;;19.20;99.90;;;;;;5016979;28;20580;-74
2022/10/03 11:31:40;;;;;;;5.00;1.17;;;19.20;99.90;;;;;;5015172;28;20777;-74
2022/10/03 11:34:39;;;;;;;4.90;1.52;;;19.30;99.90;;;;;;5018341;28;20203;-74
2022/10/03 11:37:31;;;;;;;7.57;1.50;;;19.40;99.90;;;;;;5019260;28;20539;-74
2022/10/03 11:40:23;;;;;;;4.55;1.60;;;19.40;99.90;;;;;;5018513;28;20262;-75
2022/10/03 11:43:27;;;;;;;12.55;2.03;;;19.40;99.90;;;;;;5021876;28;20220;-75
2022/10/03 11:46:06;;;;;;;2.72;1.17;;;19.30;99.90;;;;;;5017835;28;20217;-73
2022/10/03 11:49:03;;;;;;;4.82;1.25;;;19.20;99.90;;;;;;5017399;28;20202;-74
2022/10/03 11:51:42;;;;;;;5.22;1.38;;;19.10;99.90;;;;;;5021000;28;20240;-76
2022/10/03 11:54:28;;;;;;;5.43;1.50;;;19.30;99.90;;;;;;5016910;28;20232;-75
2022/10/03 11:57:08;;;;;;;6.05;1.10;;;19.00;99.90;;;;;;5015282;28;20325;-75
2022/10/03 11:59:53;;;;;;;4.38;1.33;;;19.00;99.90;;;;;;5014449;28;20230;-75
2022/10/03 12:02:58;;;;;;;5.43;1.20;;;19.00;99.90;;;;;;5012073;28;20245;-74
2022/10/03 12:05:47;;;;;;;5.70;1.50;;;19.20;99.90;;;;;;5012927;28;20202;-76
2022/10/03 12:11:43;;;;;;;9.07;1.63;;;19.50;99.90;;;;;;5019732;28;20289;-78
2022/10/03 12:14:28;;;;;;;5.15;0.98;;;19.50;99.90;;;;;;5019789;28;20198;-75
2022/10/03 12:17:14;;;;;;;4.70;1.55;;;19.70;99.90;;;;;;5007721;28;20257;-73
2022/10/03 12:20:02;;;;;;;5.05;1.20;;;19.90;99.90;;;;;;5012878;28;20320;-75
2022/10/03 12:23:00;;;;;;;6.63;1.10;;;20.00;99.90;;;;;;5035650;28;20312;-75
2022/10/03 12:25:33;;;;;;;3.22;1.15;;;20.10;99.90;;;;;;4957941;28;20705;-74
2022/10/03 12:28:23;;;;;;;4.55;1.27;;;20.20;99.90;;;;;;5043265;28;20608;-75
2022/10/03 12:30:59;;;;;;;6.72;1.23;;;20.30;99.90;;;;;;5044094;28;20201;-74
2022/10/03 12:33:32;;;;;;;4.88;0.95;;;20.30;99.90;;;;;;5007880;28;20297;-74
2022/10/03 12:36:14;;;;;;;5.50;1.17;;;20.30;99.90;;;;;;5038389;28;20332;-74
2022/10/03 12:38:47;;;;;;;15.40;5.55;;;20.10;99.90;;;;;;5026066;28;20225;-74
2022/10/03 12:41:40;;;;;;;3.78;1.52;;;20.10;99.90;;;;;;5038777;28;20254;-74
2022/10/03 12:44:56;;;;;;;5.95;1.83;;;19.90;99.90;;;;;;5038459;28;20256;-75
2022/10/03 12:47:44;;;;;;;7.50;1.50;;;19.80;99.90;;;;;;4999871;28;20225;-74
2022/10/03 12:50:55;;;;;;;4.45;1.50;;;19.60;99.90;;;;;;5039171;28;20201;-75
2022/10/03 12:53:34;;;;;;;5.78;1.35;;;19.50;99.90;;;;;;5035882;28;20636;-74
2022/10/03 12:56:12;;;;;;;2.78;1.25;;;19.50;99.90;;;;;;5043753;28;20194;-74
2022/10/03 12:58:57;;;;;;;4.03;1.60;;;19.40;99.90;;;;;;5038977;28;20831;-73
2022/10/03 13:01:30;;;;;;;5.47;1.60;;;19.40;99.90;;;;;;5020464;28;20217;-75
2022/10/03 13:04:37;;;;;;;4.57;1.52;;;19.40;99.90;;;;;;5037775;28;20209;-74
2022/10/03 13:07:22;;;;;;;3.42;1.52;;;19.40;99.90;;;;;;5028570;28;20297;-75
2022/10/03 13:09:59;;;;;;;9.07;4.65;;;19.40;99.90;;;;;;5038143;28;20572;-75
2022/10/03 13:12:53;;;;;;;10.27;2.80;;;19.40;99.90;;;;;;5035222;28;20228;-76
2022/10/03 13:15:46;;;;;;;9.40;1.45;;;19.40;99.90;;;;;;5032333;28;20254;-76
2022/10/03 13:18:25;;;;;;;6.15;2.65;;;19.30;99.90;;;;;;5037725;28;20241;-76
2022/10/03 13:21:07;;;;;;;6.30;1.75;;;19.30;99.90;;;;;;5036826;28;20201;-76
2022/10/03 13:24:19;;;;;;;6.25;1.52;;;19.30;99.90;;;;;;5042647;28;20641;-77
2022/10/03 13:27:33;;;;;;;4.82;1.63;;;19.30;99.90;;;;;;5034990;28;20879;-76
2022/10/03 13:30:14;;;;;;;5.18;1.90;;;19.30;99.90;;;;;;4973212;28;20833;-75
2022/10/03 13:32:45;;;;;;;4.85;1.85;;;19.20;99.90;;;;;;5035686;28;20707;-75
2022/10/03 13:36:00;;;;;;;6.57;1.30;;;19.10;99.90;;;;;;5020305;28;20682;-75
2022/10/03 13:38:45;;;;;;;4.95;1.52;;;19.00;99.90;;;;;;5037149;28;20251;-75
2022/10/03 13:41:18;;;;;;;12.43;4.13;;;18.90;99.90;;;;;;5024333;28;20643;-74
2022/10/03 13:43:59;;;;;;;8.07;1.92;;;18.90;99.90;;;;;;5039997;28;20201;-75
2022/10/03 13:46:36;;;;;;;4.90;1.60;;;18.90;99.90;;;;;;5040324;28;20768;-75
2022/10/03 13:49:17;;;;;;;6.93;1.48;;;18.90;99.90;;;;;;5035559;28;20258;-76
2022/10/03 13:51:52;;;;;;;4.10;1.67;;;19.00;99.90;;;;;;5035623;28;20215;-75
2022/10/03 13:54:50;;;;;;;5.47;1.50;;;19.10;99.90;;;;;;5034014;28;20292;-76
2022/10/03 13:57:27;;;;;;;3.15;1.48;;;19.00;99.90;;;;;;5040885;28;20243;-76
2022/10/03 14:00:20;;;;;;;6.85;1.63;;;19.00;99.90;;;;;;5033841;28;20251;-75
2022/10/03 14:03:12;;;;;;;5.32;1.40;;;19.00;99.90;;;;;;5040119;28;20308;-73
2022/10/03 14:06:09;;;;;;;5.65;1.48;;;19.10;99.90;;;;;;5039785;28;20201;-75
2022/10/03 14:08:42;;;;;;;5.22;1.35;;;19.10;99.90;;;;;;5002707;28;20343;-75
2022/10/03 14:11:41;;;;;;;7.55;1.67;;;19.20;99.90;;;;;;5038861;28;20194;-76
2022/10/03 14:14:38;;;;;;;4.32;1.60;;;19.20;99.90;;;;;;5042593;28;20224;-75
2022/10/03 14:17:23;;;;;;;;;;;;;;;;;;;;;
2022/10/03 14:20:25;;;;;;;6.90;1.88;;;19.10;99.90;;;;;;5036599;28;20221;-75
2022/10/03 14:23:19;;;;;;;7.38;1.58;;;19.10;99.90;;;;;;5038609;28;20601;-75
2022/10/03 14:26:09;;;;;;;5.03;1.85;;;19.10;99.90;;;;;;5030188;28;20706;-75
2022/10/03 14:28:58;;;;;;;4.93;1.60;;;19.10;99.90;;;;;;5031424;28;20212;-75
2022/10/03 14:31:33;;;;;;;4.57;1.40;;;19.20;99.90;;;;;;5038858;28;20780;-75
2022/10/03 14:34:00;;;;;;;5.10;1.58;;;19.00;99.90;;;;;;5040587;28;20204;-76
2022/10/03 14:36:44;;;;;;;7.65;1.60;;;19.00;99.90;;;;;;5036766;28;20294;-75
2022/10/03 14:39:37;;;;;;;10.02;1.85;;;19.00;99.90;;;;;;5043016;28;20685;-75
2022/10/03 14:42:52;;;;;;;5.90;1.80;;;18.90;99.90;;;;;;5035700;28;20284;-75
2022/10/03 14:45:45;;;;;;;7.00;1.67;;;18.90;99.90;;;;;;4960327;28;20649;-74
2022/10/03 14:48:18;;;;;;;9.55;2.05;;;18.90;99.90;;;;;;5037684;28;20214;-75
2022/10/03 14:50:49;;;;;;;9.93;2.13;;;18.90;99.90;;;;;;5043451;28;20703;-75
2022/10/03 14:53:23;;;;;;;6.07;1.80;;;19.00;99.90;;;;;;5037258;28;20281;-75
2022/10/03 14:55:59;;;;;;;6.63;1.55;;;18.90;99.90;;;;;;5022461;28;20579;-76